Main page
METAR-TAF:

METAR-TAF

Airports :

Oil platform

Hoorn-a, Netherlands

latitude: 52-55-05N, longitude: 4-09-01E, elevation: 41 m

Current weather observation

The report was made 40 minutes ago, at 08:25 UTC
Wind 37 kt from the Southwest
Temperature 14°C
Humidity 63%
Pressure 1000 hPa
Visibility 10 km or more
Few clouds at a height of 2600 ft
Scattered clouds at a height of 2900 ft
Broken clouds at a height of 3500 ft

METAR: EHQE 210825Z AUTO 23037KT 9999 FEW026 SCT029 BKN035 14/07 Q1000 W///H///

Time: 11:05 (09:05 UTC)


TAF: missing

Weather observations and forecasts of more than 4000 airports (METAR and TAF reports).

The available stations are represented by yellow and red dots on the map.

Hover mouse over dot to see the name of the station.

Then click to see weather observations and forecasts.

To change the map : click on the green buttons with a black cross to zoom in, on the green button with a dash to zoom out, or on the green arrows for adjacent maps.


METAR-TAF: